createdAt,value
2019-06-10T00:00:42.238Z,0.00
2019-06-10T00:01:41.682Z,0.00
2019-06-10T00:02:41.594Z,0.00
2019-06-10T00:03:42.249Z,0.00
2019-06-10T00:04:41.714Z,0.00
2019-06-10T00:05:41.828Z,0.00
2019-06-10T00:06:41.685Z,0.00
2019-06-10T00:07:41.556Z,0.00
2019-06-10T00:08:41.525Z,0.00
2019-06-10T00:09:41.514Z,0.00
2019-06-10T00:10:42.540Z,0.00
2019-06-10T00:11:42.931Z,0.00
2019-06-10T00:12:41.997Z,0.00
2019-06-10T00:13:41.618Z,0.00
2019-06-10T00:14:41.972Z,0.00
2019-06-10T00:15:41.561Z,0.00
2019-06-10T00:16:41.738Z,0.00
2019-06-10T00:17:53.230Z,0.00
2019-06-10T00:18:45.642Z,0.00
2019-06-10T00:19:41.396Z,0.00
2019-06-10T00:20:41.448Z,0.00
2019-06-10T00:21:41.447Z,0.00
2019-06-10T00:22:41.378Z,0.00
2019-06-10T00:23:41.438Z,0.00
2019-06-10T00:24:41.337Z,0.00
2019-06-10T00:25:41.964Z,0.00
2019-06-10T00:26:41.437Z,0.00
2019-06-10T00:27:42.029Z,0.00
2019-06-10T00:28:41.290Z,0.00
2019-06-10T00:29:41.281Z,0.00
2019-06-10T00:30:41.663Z,0.00
2019-06-10T00:31:41.815Z,0.00
2019-06-10T00:32:41.330Z,0.00
2019-06-10T00:33:41.496Z,0.00
2019-06-10T00:34:41.916Z,0.00
2019-06-10T00:35:41.559Z,0.00
2019-06-10T00:36:41.440Z,0.00
2019-06-10T00:37:41.851Z,0.00
2019-06-10T00:38:41.327Z,0.00
2019-06-10T00:39:41.163Z,0.00
2019-06-10T00:40:41.911Z,0.00
2019-06-10T00:41:42.784Z,0.00
2019-06-10T00:42:41.739Z,0.00
2019-06-10T00:43:41.277Z,0.00
2019-06-10T00:44:41.635Z,0.00
2019-06-10T00:45:41.477Z,0.00
2019-06-10T00:46:41.085Z,0.00
2019-06-10T00:47:41.467Z,0.00
2019-06-10T00:48:41.160Z,0.00
2019-06-10T00:49:41.087Z,0.00
2019-06-10T00:50:41.738Z,0.00
2019-06-10T00:51:41.437Z,0.00
2019-06-10T00:52:44.457Z,0.00
2019-06-10T00:53:42.263Z,0.00
2019-06-10T00:54:41.754Z,0.00
2019-06-10T00:55:41.837Z,0.00
2019-06-10T00:56:41.412Z,0.00
2019-06-10T00:57:41.843Z,0.00
2019-06-10T00:58:40.967Z,0.00
2019-06-10T00:59:41.372Z,0.00
2019-06-10T01:00:41.349Z,0.00
2019-06-10T01:01:41.637Z,0.00
2019-06-10T01:02:41.123Z,0.00
2019-06-10T01:03:41.494Z,0.00
2019-06-10T01:04:40.894Z,0.00
2019-06-10T01:05:42.025Z,0.00
2019-06-10T01:06:42.333Z,0.00
2019-06-10T01:07:41.395Z,0.00
2019-06-10T01:08:40.827Z,0.00
2019-06-10T01:09:41.292Z,0.00
2019-06-10T01:10:44.019Z,0.00
2019-06-10T01:11:41.174Z,0.00
2019-06-10T01:12:40.813Z,0.00
2019-06-10T01:13:41.412Z,0.00
2019-06-10T01:14:41.162Z,0.00
2019-06-10T01:15:41.800Z,0.00
2019-06-10T01:16:41.180Z,0.00
2019-06-10T01:17:41.692Z,0.00
2019-06-10T01:18:41.599Z,0.00
2019-06-10T01:19:41.545Z,0.00
2019-06-10T01:20:41.447Z,0.00
2019-06-10T01:21:41.548Z,0.00
2019-06-10T01:22:41.094Z,0.00
2019-06-10T01:23:41.628Z,0.00
2019-06-10T01:24:40.859Z,0.00
2019-06-10T01:25:42.300Z,0.00
2019-06-10T01:26:41.156Z,0.00
2019-06-10T01:27:41.006Z,0.00
2019-06-10T01:28:41.016Z,0.00
2019-06-10T01:29:41.633Z,0.00
2019-06-10T01:30:41.278Z,0.00
2019-06-10T01:31:41.963Z,0.00
2019-06-10T01:32:41.603Z,0.00
2019-06-10T01:33:41.119Z,0.00
2019-06-10T01:34:41.674Z,0.00
2019-06-10T01:35:41.506Z,0.00
2019-06-10T01:36:40.644Z,0.00
2019-06-10T01:37:41.360Z,0.00
2019-06-10T01:38:40.954Z,0.00
2019-06-10T01:39:41.269Z,0.00
2019-06-10T01:40:42.350Z,0.00
2019-06-10T01:41:40.960Z,0.00
2019-06-10T01:42:41.259Z,0.00
2019-06-10T01:43:40.823Z,0.00
2019-06-10T01:44:41.207Z,0.00
2019-06-10T01:45:41.840Z,0.00
2019-06-10T01:46:41.022Z,0.00
2019-06-10T01:47:41.684Z,0.00
2019-06-10T01:48:45.054Z,0.00
2019-06-10T01:49:41.395Z,0.00
2019-06-10T01:50:40.687Z,0.00
2019-06-10T01:51:41.162Z,0.00
2019-06-10T01:52:41.090Z,0.00
2019-06-10T01:53:41.504Z,0.00
2019-06-10T01:54:42.054Z,0.00
2019-06-10T01:55:41.775Z,0.00
2019-06-10T01:56:40.853Z,0.00
2019-06-10T01:57:41.279Z,0.00
2019-06-10T01:58:40.708Z,0.00
2019-06-10T01:59:41.317Z,0.00
2019-06-10T02:00:41.808Z,0.00
2019-06-10T02:01:41.338Z,0.00
2019-06-10T02:02:44.751Z,0.00
2019-06-10T02:03:41.487Z,0.00
2019-06-10T02:04:41.149Z,0.00
2019-06-10T02:05:41.943Z,0.00
2019-06-10T02:06:40.589Z,0.00
2019-06-10T02:07:41.006Z,0.00
2019-06-10T02:08:41.795Z,0.00
2019-06-10T02:09:41.102Z,0.00
2019-06-10T02:10:41.556Z,0.00
2019-06-10T02:11:41.394Z,0.00
2019-06-10T02:12:41.548Z,0.00
2019-06-10T02:13:40.958Z,0.00
2019-06-10T02:14:41.642Z,0.00
2019-06-10T02:15:41.047Z,0.00
2019-06-10T02:16:41.436Z,0.00
2019-06-10T02:17:41.718Z,0.00
2019-06-10T02:18:42.233Z,0.00
2019-06-10T02:19:41.412Z,0.00
2019-06-10T02:20:41.239Z,0.00
2019-06-10T02:21:41.707Z,0.00
2019-06-10T02:22:41.085Z,0.00
2019-06-10T02:23:41.182Z,0.00
2019-06-10T02:24:41.660Z,0.00
2019-06-10T02:25:41.243Z,0.00
2019-06-10T02:26:41.070Z,0.00
2019-06-10T02:27:41.554Z,0.00
2019-06-10T02:28:40.658Z,0.00
2019-06-10T02:29:41.227Z,0.00
2019-06-10T02:30:49.867Z,0.00
2019-06-10T02:31:43.173Z,0.00
2019-06-10T02:32:42.588Z,0.00
2019-06-10T02:33:42.006Z,0.00
2019-06-10T02:34:59.904Z,0.00
2019-06-10T02:35:47.954Z,0.00
2019-06-10T02:36:44.258Z,0.00
2019-06-10T02:37:39.786Z,0.00
2019-06-10T02:38:39.948Z,0.00
2019-06-10T02:39:39.764Z,0.00
2019-06-10T02:40:42.995Z,0.00
2019-06-10T02:41:39.898Z,0.00
2019-06-10T02:42:43.371Z,0.00
2019-06-10T02:43:39.719Z,0.00
2019-06-10T02:44:39.710Z,0.00
2019-06-10T02:45:39.693Z,0.00
2019-06-10T02:46:43.587Z,0.00
2019-06-10T02:47:39.672Z,0.00
2019-06-10T02:48:39.655Z,0.00
2019-06-10T02:49:55.674Z,0.00
2019-06-10T02:50:43.864Z,0.00
2019-06-10T02:51:39.687Z,0.00
2019-06-10T02:52:39.629Z,0.00
2019-06-10T02:53:43.065Z,0.00
2019-06-10T02:54:39.590Z,0.00
2019-06-10T02:55:43.205Z,0.00
2019-06-10T02:56:39.564Z,0.00
2019-06-10T02:57:40.507Z,0.00
2019-06-10T02:58:40.288Z,0.00
2019-06-10T02:59:39.530Z,0.00
2019-06-10T03:00:44.566Z,0.00
2019-06-10T03:01:43.745Z,0.00
2019-06-10T03:02:39.509Z,0.00
2019-06-10T03:03:45.835Z,0.00
2019-06-10T03:04:43.108Z,0.00
2019-06-10T03:05:41.048Z,0.00
2019-06-10T03:06:40.642Z,0.00
2019-06-10T03:07:43.998Z,0.00
2019-06-10T03:08:39.420Z,0.00
2019-06-10T03:09:42.568Z,5.62
2019-06-10T03:10:39.399Z,5.62
2019-06-10T03:11:39.476Z,5.62
2019-06-10T03:12:39.373Z,5.62
2019-06-10T03:13:39.380Z,5.62
2019-06-10T03:14:39.350Z,5.62
2019-06-10T03:15:39.335Z,5.62
2019-06-10T03:16:39.325Z,5.62
2019-06-10T03:17:39.311Z,5.62
2019-06-10T03:18:39.323Z,5.62
2019-06-10T03:19:47.844Z,5.62
2019-06-10T03:20:42.540Z,5.62
2019-06-10T03:21:39.266Z,5.62
2019-06-10T03:22:39.253Z,5.62
2019-06-10T03:23:39.242Z,5.62
2019-06-10T03:24:39.250Z,5.62
2019-06-10T03:25:39.219Z,5.62
2019-06-10T03:26:39.207Z,5.62
2019-06-10T03:27:39.195Z,5.62
2019-06-10T03:28:39.183Z,5.62
2019-06-10T03:29:39.194Z,5.62
2019-06-10T03:30:49.691Z,5.62
2019-06-10T03:31:43.101Z,5.62
2019-06-10T03:32:42.800Z,5.62
2019-06-10T03:33:43.046Z,11.25
2019-06-10T03:34:45.987Z,11.25
2019-06-10T03:35:42.374Z,11.25
2019-06-10T03:36:39.088Z,11.25
2019-06-10T03:37:39.078Z,11.25
2019-06-10T03:38:39.118Z,11.25
2019-06-10T03:39:39.053Z,11.25
2019-06-10T03:40:39.059Z,11.25
2019-06-10T03:41:39.027Z,11.25
2019-06-10T03:42:39.017Z,11.25
2019-06-10T03:43:39.005Z,11.25
2019-06-10T03:44:38.994Z,11.25
2019-06-10T03:45:39.002Z,11.25
2019-06-10T03:46:38.969Z,11.25
2019-06-10T03:47:38.984Z,11.25
2019-06-10T03:48:38.944Z,11.25
2019-06-10T03:49:49.899Z,16.88
2019-06-10T03:50:39.944Z,16.88
2019-06-10T03:51:38.932Z,16.88
2019-06-10T03:52:38.898Z,16.88
2019-06-10T03:53:38.886Z,22.50
2019-06-10T03:54:38.892Z,22.50
2019-06-10T03:55:38.863Z,22.50
2019-06-10T03:56:38.850Z,22.50
2019-06-10T03:57:38.837Z,22.50
2019-06-10T03:58:38.826Z,22.50
2019-06-10T03:59:38.843Z,28.12
2019-06-10T04:00:38.801Z,28.12
2019-06-10T04:01:38.793Z,33.75
2019-06-10T04:02:38.780Z,33.75
2019-06-10T04:03:38.766Z,39.38
2019-06-10T04:04:38.756Z,39.38
2019-06-10T04:05:38.763Z,39.38
2019-06-10T04:06:38.749Z,39.38
2019-06-10T04:07:38.722Z,33.75
2019-06-10T04:08:38.708Z,33.75
2019-06-10T04:09:38.717Z,33.75
2019-06-10T04:10:38.682Z,33.75
2019-06-10T04:11:38.759Z,33.75
2019-06-10T04:12:38.660Z,33.75
2019-06-10T04:13:38.649Z,33.75
2019-06-10T04:14:38.637Z,28.12
2019-06-10T04:15:38.642Z,28.12
2019-06-10T04:16:38.614Z,28.12
2019-06-10T04:17:38.605Z,22.50
2019-06-10T04:18:38.589Z,22.50
2019-06-10T04:19:38.575Z,22.50
2019-06-10T04:20:38.585Z,22.50
2019-06-10T04:21:38.588Z,22.50
2019-06-10T04:22:38.540Z,28.12
2019-06-10T04:23:38.534Z,28.12
2019-06-10T04:24:38.520Z,33.75
2019-06-10T04:25:38.547Z,22.50
2019-06-10T04:26:38.499Z,33.75
2019-06-10T04:27:38.485Z,39.38
2019-06-10T04:28:38.472Z,45.00
2019-06-10T04:29:38.458Z,50.62
2019-06-10T04:30:38.449Z,56.25
2019-06-10T04:31:38.458Z,61.88
2019-06-10T04:32:38.422Z,61.88
2019-06-10T04:33:38.412Z,67.50
2019-06-10T04:34:38.399Z,73.12
2019-06-10T04:35:38.386Z,73.12
2019-06-10T04:36:38.393Z,78.75
2019-06-10T04:37:38.362Z,78.75
2019-06-10T04:38:38.350Z,78.75
2019-06-10T04:39:38.341Z,78.75
2019-06-10T04:40:38.329Z,78.75
2019-06-10T04:41:38.349Z,84.38
2019-06-10T04:42:38.305Z,84.38
2019-06-10T04:43:38.293Z,84.38
2019-06-10T04:44:38.279Z,84.38
2019-06-10T04:45:38.268Z,84.38
2019-06-10T04:46:38.291Z,90.00
2019-06-10T04:47:38.245Z,95.62
2019-06-10T04:48:38.231Z,95.62
2019-06-10T04:49:38.221Z,101.25
2019-06-10T04:50:45.476Z,106.88
2019-06-10T04:51:39.215Z,112.50
2019-06-10T04:52:38.184Z,123.75
2019-06-10T04:53:40.327Z,140.62
2019-06-10T04:54:38.162Z,163.12
2019-06-10T04:55:38.150Z,180.00
2019-06-10T04:56:38.158Z,202.50
2019-06-10T04:57:38.125Z,213.75
2019-06-10T04:58:38.114Z,219.38
2019-06-10T04:59:38.101Z,213.75
2019-06-10T05:00:38.093Z,196.88
2019-06-10T05:01:38.213Z,174.38
2019-06-10T05:02:38.086Z,157.50
2019-06-10T05:03:38.058Z,135.00
2019-06-10T05:04:38.045Z,129.38
2019-06-10T05:05:38.033Z,135.00
2019-06-10T05:06:38.045Z,140.62
2019-06-10T05:07:38.011Z,140.62
2019-06-10T05:08:38.000Z,129.38
2019-06-10T05:09:37.987Z,118.12
2019-06-10T05:10:37.976Z,118.12
2019-06-10T05:11:38.077Z,118.12
2019-06-10T05:12:37.971Z,123.75
2019-06-10T05:13:37.940Z,123.75
2019-06-10T05:14:37.929Z,123.75
2019-06-10T05:15:37.921Z,129.38
2019-06-10T05:16:37.918Z,135.00
2019-06-10T05:17:37.913Z,151.88
2019-06-10T05:18:37.881Z,157.50
2019-06-10T05:19:37.869Z,163.12
2019-06-10T05:20:54.096Z,163.12
2019-06-10T05:21:38.846Z,157.50
2019-06-10T05:22:37.852Z,157.50
2019-06-10T05:23:37.825Z,151.88
2019-06-10T05:24:37.812Z,151.88
2019-06-10T05:25:37.802Z,163.12
2019-06-10T05:26:37.788Z,163.12
2019-06-10T05:27:37.798Z,168.75
2019-06-10T05:28:37.765Z,163.12
2019-06-10T05:29:37.767Z,157.50
2019-06-10T05:30:37.771Z,151.88
2019-06-10T05:31:37.791Z,151.88
2019-06-10T05:32:37.744Z,157.50
2019-06-10T05:33:37.706Z,157.50
2019-06-10T05:34:37.693Z,157.50
2019-06-10T05:35:37.699Z,157.50
2019-06-10T05:36:37.676Z,151.88
2019-06-10T05:37:37.661Z,146.25
2019-06-10T05:38:37.669Z,140.62
2019-06-10T05:39:37.638Z,140.62
2019-06-10T05:40:37.624Z,146.25
2019-06-10T05:41:37.666Z,151.88
2019-06-10T05:42:37.600Z,157.50
2019-06-10T05:43:37.606Z,157.50
2019-06-10T05:44:37.577Z,163.12
2019-06-10T05:45:37.564Z,180.00
2019-06-10T05:46:37.554Z,196.88
2019-06-10T05:47:37.540Z,213.75
2019-06-10T05:48:37.553Z,236.25
2019-06-10T05:49:37.517Z,258.75
2019-06-10T05:50:37.507Z,275.62
2019-06-10T05:51:37.493Z,292.50
2019-06-10T05:52:37.484Z,303.75
2019-06-10T05:53:37.490Z,309.38
2019-06-10T05:54:37.459Z,298.12
2019-06-10T05:55:37.447Z,286.88
2019-06-10T05:56:37.436Z,247.50
2019-06-10T05:57:37.423Z,225.00
2019-06-10T05:58:37.410Z,236.25
2019-06-10T05:59:37.418Z,264.38
2019-06-10T06:00:37.386Z,292.50
2019-06-10T06:01:38.626Z,309.38
2019-06-10T06:02:37.363Z,315.00
2019-06-10T06:03:37.396Z,303.75
2019-06-10T06:04:37.338Z,286.88
2019-06-10T06:05:38.094Z,281.25
2019-06-10T06:06:37.533Z,281.25
2019-06-10T06:07:37.583Z,275.62
2019-06-10T06:08:37.538Z,275.62
2019-06-10T06:09:37.772Z,270.00
2019-06-10T06:10:37.839Z,270.00
2019-06-10T06:11:37.803Z,281.25
2019-06-10T06:12:37.845Z,303.75
2019-06-10T06:13:38.045Z,326.25
2019-06-10T06:14:37.795Z,337.50
2019-06-10T06:15:38.071Z,348.75
2019-06-10T06:16:38.306Z,360.00
2019-06-10T06:17:38.534Z,371.25
2019-06-10T06:18:38.330Z,382.50
2019-06-10T06:19:38.825Z,388.12
2019-06-10T06:20:37.610Z,382.50
2019-06-10T06:21:42.948Z,388.12
2019-06-10T06:22:38.131Z,399.38
2019-06-10T06:23:38.265Z,410.62
2019-06-10T06:24:37.984Z,427.50
2019-06-10T06:25:42.238Z,438.75
2019-06-10T06:26:39.680Z,455.62
2019-06-10T06:27:38.238Z,472.50
2019-06-10T06:28:38.268Z,489.38
2019-06-10T06:29:38.305Z,500.62
2019-06-10T06:30:37.641Z,500.62
2019-06-10T06:31:37.708Z,483.75
2019-06-10T06:32:38.189Z,455.62
2019-06-10T06:33:39.727Z,433.12
2019-06-10T06:34:38.651Z,427.50
2019-06-10T06:35:42.736Z,433.12
2019-06-10T06:36:38.390Z,455.62
2019-06-10T06:37:39.140Z,472.50
2019-06-10T06:38:38.392Z,461.25
2019-06-10T06:39:38.213Z,438.75
2019-06-10T06:40:37.574Z,416.25
2019-06-10T06:41:38.645Z,405.00
2019-06-10T06:42:38.232Z,399.38
2019-06-10T06:43:41.567Z,405.00
2019-06-10T06:44:39.426Z,410.62
2019-06-10T06:45:37.778Z,410.62
2019-06-10T06:46:39.323Z,393.75
2019-06-10T06:47:37.740Z,371.25
2019-06-10T06:48:39.089Z,337.50
2019-06-10T06:49:37.143Z,315.00
2019-06-10T06:50:46.260Z,298.12
2019-06-10T06:51:49.471Z,298.12
2019-06-10T06:53:12.520Z,309.38
2019-06-10T06:53:45.430Z,331.88
2019-06-10T06:54:39.334Z,360.00
2019-06-10T06:55:38.087Z,393.75
2019-06-10T06:56:38.882Z,416.25
2019-06-10T06:57:37.323Z,438.75
2019-06-10T06:58:37.344Z,472.50
2019-06-10T06:59:38.465Z,405.00
2019-06-10T07:00:53.185Z,433.12
2019-06-10T07:01:39.588Z,416.25
2019-06-10T07:02:37.568Z,427.50
2019-06-10T07:03:38.609Z,438.75
2019-06-10T07:04:37.469Z,461.25
2019-06-10T07:05:37.548Z,444.38
2019-06-10T07:06:37.427Z,444.38
2019-06-10T07:07:37.417Z,506.25
2019-06-10T07:08:38.094Z,534.38
2019-06-10T07:09:37.418Z,545.62
2019-06-10T07:10:37.365Z,534.38
2019-06-10T07:11:38.532Z,500.62
2019-06-10T07:12:37.862Z,466.88
2019-06-10T07:13:39.126Z,455.62
2019-06-10T07:14:38.629Z,455.62
2019-06-10T07:15:38.870Z,455.62
2019-06-10T07:16:38.986Z,461.25
2019-06-10T07:17:37.930Z,472.50
2019-06-10T07:18:41.644Z,506.25
2019-06-10T07:19:39.530Z,528.75
2019-06-10T07:20:38.245Z,573.75
2019-06-10T07:21:56.936Z,607.50
2019-06-10T07:22:40.061Z,624.38
2019-06-10T07:23:39.501Z,630.00
2019-06-10T07:24:39.274Z,607.50
2019-06-10T07:25:38.663Z,579.38
2019-06-10T07:26:42.326Z,551.25
2019-06-10T07:27:39.864Z,517.50
2019-06-10T07:28:38.418Z,483.75
2019-06-10T07:29:38.583Z,466.88
2019-06-10T07:30:39.474Z,466.88
2019-06-10T07:31:38.451Z,478.12
2019-06-10T07:32:38.753Z,489.38
2019-06-10T07:33:39.256Z,506.25
2019-06-10T07:34:37.086Z,551.25
2019-06-10T07:35:37.272Z,573.75
2019-06-10T07:36:37.126Z,562.50
2019-06-10T07:37:37.873Z,506.25
2019-06-10T07:38:39.308Z,461.25
2019-06-10T07:39:36.874Z,472.50
2019-06-10T07:40:37.445Z,517.50
2019-06-10T07:41:37.528Z,528.75
2019-06-10T07:42:37.423Z,540.00
2019-06-10T07:43:40.850Z,534.38
2019-06-10T07:44:37.561Z,511.88
2019-06-10T07:45:38.984Z,517.50
2019-06-10T07:46:36.676Z,545.62
2019-06-10T07:47:36.987Z,545.62
2019-06-10T07:48:37.208Z,545.62
2019-06-10T07:49:37.191Z,562.50
2019-06-10T07:50:37.474Z,585.00
2019-06-10T07:51:37.368Z,618.75
2019-06-10T07:52:37.323Z,652.50
2019-06-10T07:53:37.000Z,720.00
2019-06-10T07:54:37.491Z,798.75
2019-06-10T07:55:36.641Z,849.38
2019-06-10T07:56:40.336Z,900.00
2019-06-10T07:57:37.499Z,956.25
2019-06-10T07:58:37.182Z,1051.88
2019-06-10T07:59:35.997Z,1198.12
2019-06-10T08:00:36.885Z,1181.25
2019-06-10T08:01:37.395Z,1243.12
2019-06-10T08:02:37.611Z,1147.50
2019-06-10T08:03:36.920Z,1220.62
2019-06-10T08:04:36.532Z,1800.00
2019-06-10T08:05:36.067Z,1276.88
2019-06-10T08:06:36.402Z,1192.50
2019-06-10T08:07:36.730Z,1451.25
2019-06-10T08:08:36.821Z,1271.25
2019-06-10T08:09:37.316Z,1496.25
2019-06-10T08:10:36.986Z,1541.25
2019-06-10T08:11:37.105Z,1338.75
2019-06-10T08:12:37.064Z,1383.75
2019-06-10T08:13:37.018Z,1456.88
2019-06-10T08:14:35.845Z,1417.50
2019-06-10T08:15:35.811Z,1423.12
2019-06-10T08:16:35.802Z,1434.38
2019-06-10T08:17:35.790Z,1254.38
2019-06-10T08:18:44.658Z,1282.50
2019-06-10T08:19:40.339Z,1282.50
2019-06-10T08:20:37.026Z,1428.75
2019-06-10T08:21:37.117Z,1665.00
2019-06-10T08:22:41.944Z,2030.62
2019-06-10T08:23:37.466Z,1940.62
2019-06-10T08:24:35.729Z,1867.50
2019-06-10T08:25:36.826Z,1653.75
2019-06-10T08:26:35.689Z,1389.38
2019-06-10T08:27:36.567Z,1440.00
2019-06-10T08:28:35.667Z,1625.62
2019-06-10T08:29:36.681Z,1490.62
2019-06-10T08:30:35.681Z,1620.00
2019-06-10T08:31:36.672Z,1490.62
2019-06-10T08:32:36.029Z,1614.38
2019-06-10T08:33:36.898Z,1743.75
2019-06-10T08:34:35.926Z,1524.38
2019-06-10T08:35:44.047Z,1350.00
2019-06-10T08:36:36.579Z,1974.38
2019-06-10T08:37:36.078Z,1456.88
2019-06-10T08:38:36.290Z,1524.38
2019-06-10T08:39:36.201Z,1417.50
2019-06-10T08:40:36.310Z,1558.12
2019-06-10T08:41:36.307Z,1462.50
2019-06-10T08:42:36.559Z,1344.38
2019-06-10T08:43:36.447Z,1310.62
2019-06-10T08:44:36.607Z,1400.62
2019-06-10T08:45:36.791Z,1490.62
2019-06-10T08:46:36.776Z,1473.75
2019-06-10T08:47:35.456Z,1136.25
2019-06-10T08:48:35.444Z,973.12
2019-06-10T08:49:35.435Z,905.62
2019-06-10T08:50:35.474Z,877.50
2019-06-10T08:51:35.412Z,967.50
2019-06-10T08:52:51.657Z,1119.38
2019-06-10T08:53:37.377Z,1310.62
2019-06-10T08:54:35.379Z,1591.88
2019-06-10T08:55:35.384Z,1968.75
2019-06-10T08:56:35.355Z,2632.50
2019-06-10T08:57:35.345Z,3082.50
2019-06-10T08:58:35.335Z,3391.88
2019-06-10T08:59:35.327Z,3571.88
2019-06-10T09:00:35.331Z,3628.12
2019-06-10T09:01:35.305Z,3628.12
2019-06-10T09:02:35.289Z,3881.25
2019-06-10T09:03:35.282Z,3943.12
2019-06-10T09:04:35.271Z,3909.38
2019-06-10T09:05:35.287Z,3903.75
2019-06-10T09:06:35.250Z,4280.62
2019-06-10T09:07:35.240Z,4421.25
2019-06-10T09:08:35.232Z,3729.38
2019-06-10T09:09:35.225Z,3251.25
2019-06-10T09:10:35.215Z,3892.50
2019-06-10T09:11:35.221Z,4314.38
2019-06-10T09:12:36.738Z,4618.12
2019-06-10T09:13:35.184Z,4381.88
2019-06-10T09:14:35.176Z,4010.62
2019-06-10T09:15:35.165Z,4061.25
2019-06-10T09:16:35.180Z,3836.25
2019-06-10T09:17:35.150Z,2660.62
2019-06-10T09:18:35.142Z,2064.38
2019-06-10T09:19:35.133Z,2115.00
2019-06-10T09:20:35.117Z,1929.38
2019-06-10T09:21:35.108Z,1783.12
2019-06-10T09:22:35.119Z,1569.38
2019-06-10T09:23:35.090Z,1417.50
2019-06-10T09:24:35.078Z,1383.75
2019-06-10T09:25:35.069Z,1895.62
2019-06-10T09:26:35.057Z,2025.00
2019-06-10T09:27:35.068Z,1867.50
2019-06-10T09:28:35.038Z,1316.25
2019-06-10T09:29:35.029Z,1378.12
2019-06-10T09:30:35.019Z,1507.50
2019-06-10T09:31:35.010Z,3161.25
2019-06-10T09:32:35.015Z,2700.00
2019-06-10T09:33:34.985Z,3015.00
2019-06-10T09:34:34.976Z,2896.88
2019-06-10T09:35:34.965Z,2986.88
2019-06-10T09:36:34.956Z,3093.75
2019-06-10T09:37:34.966Z,3571.88
2019-06-10T09:38:34.937Z,3425.62
2019-06-10T09:39:34.923Z,3380.62
2019-06-10T09:40:34.913Z,3369.38
2019-06-10T09:41:41.053Z,4179.38
2019-06-10T09:42:35.918Z,4606.88
2019-06-10T09:43:34.882Z,4612.50
2019-06-10T09:44:34.872Z,3330.00
2019-06-10T09:45:35.119Z,4021.88
2019-06-10T09:46:34.854Z,4095.00
2019-06-10T09:47:34.936Z,3600.00
2019-06-10T09:48:34.850Z,3234.38
2019-06-10T09:49:34.826Z,1636.88
2019-06-10T09:50:34.813Z,2036.25
2019-06-10T09:51:34.807Z,3009.38
2019-06-10T09:52:34.793Z,4460.62
2019-06-10T09:53:42.313Z,3656.25
2019-06-10T09:54:35.772Z,3993.75
2019-06-10T09:55:34.764Z,2835.00
2019-06-10T09:56:34.756Z,4421.25
2019-06-10T09:57:34.745Z,3386.25
2019-06-10T09:58:34.752Z,4275.00
2019-06-10T09:59:34.726Z,3802.50
2019-06-10T10:00:34.720Z,4803.75
2019-06-10T10:01:34.710Z,5158.12
2019-06-10T10:02:34.698Z,4286.25
2019-06-10T10:03:34.712Z,3870.00
2019-06-10T10:04:37.410Z,3088.12
2019-06-10T10:05:34.668Z,4758.75
2019-06-10T10:06:34.661Z,4792.50
2019-06-10T10:07:34.651Z,4089.38
2019-06-10T10:08:34.652Z,4657.50
2019-06-10T10:09:37.116Z,4820.62
2019-06-10T10:10:34.619Z,4106.25
2019-06-10T10:11:34.610Z,4663.12
2019-06-10T10:12:34.604Z,4668.75
2019-06-10T10:13:35.533Z,4623.75
2019-06-10T10:14:34.607Z,4095.00
2019-06-10T10:15:34.745Z,1726.88
2019-06-10T10:16:34.564Z,1473.75
2019-06-10T10:17:35.028Z,1282.50
2019-06-10T10:18:34.546Z,1305.00
2019-06-10T10:19:34.538Z,1293.75
2019-06-10T10:20:34.544Z,1248.75
2019-06-10T10:21:34.925Z,1153.12
2019-06-10T10:22:34.506Z,1260.00
2019-06-10T10:23:50.382Z,1423.12
2019-06-10T10:24:35.481Z,2323.12
2019-06-10T10:25:34.493Z,3026.25
2019-06-10T10:26:34.463Z,2835.00
2019-06-10T10:27:34.453Z,2986.88
2019-06-10T10:28:34.442Z,3397.50
2019-06-10T10:29:34.430Z,3943.12
2019-06-10T10:30:34.452Z,3920.62
2019-06-10T10:31:34.416Z,3504.38
2019-06-10T10:32:34.401Z,3346.88
2019-06-10T10:33:34.420Z,3498.75
2019-06-10T10:34:34.380Z,3391.88
2019-06-10T10:35:34.370Z,4061.25
2019-06-10T10:36:34.380Z,4033.12
2019-06-10T10:37:34.353Z,4246.88
2019-06-10T10:38:34.894Z,4213.12
2019-06-10T10:39:34.331Z,3965.62
2019-06-10T10:40:34.349Z,4156.88
2019-06-10T10:41:34.330Z,4376.25
2019-06-10T10:42:44.930Z,4128.75
2019-06-10T10:43:37.727Z,4561.88
2019-06-10T10:44:34.283Z,4674.38
2019-06-10T10:45:34.269Z,4595.62
2019-06-10T10:46:34.278Z,4725.00
2019-06-10T10:47:34.253Z,4601.25
2019-06-10T10:48:34.322Z,4888.12
2019-06-10T10:49:34.231Z,4893.75
2019-06-10T10:50:34.316Z,4606.88
2019-06-10T10:51:34.769Z,4404.38
2019-06-10T10:52:34.203Z,4522.50
2019-06-10T10:53:34.191Z,4668.75
2019-06-10T10:54:36.767Z,4741.88
2019-06-10T10:55:34.170Z,4533.75
2019-06-10T10:56:34.201Z,3706.88
2019-06-10T10:57:34.152Z,4685.62
2019-06-10T10:58:34.141Z,1147.50
2019-06-10T10:59:34.135Z,871.88
2019-06-10T11:00:37.512Z,894.38
2019-06-10T11:01:34.210Z,826.88
2019-06-10T11:02:34.128Z,826.88
2019-06-10T11:03:34.101Z,759.38
2019-06-10T11:04:34.081Z,759.38
2019-06-10T11:05:34.073Z,815.62
2019-06-10T11:06:34.062Z,1130.62
2019-06-10T11:07:34.118Z,3841.88
2019-06-10T11:08:34.065Z,4972.50
2019-06-10T11:09:34.029Z,4820.62
2019-06-10T11:10:34.024Z,4719.38
2019-06-10T11:11:34.017Z,4786.88
2019-06-10T11:12:34.019Z,4983.75
2019-06-10T11:13:33.992Z,4860.00
2019-06-10T11:14:34.237Z,4618.12
2019-06-10T11:15:34.031Z,4477.50
2019-06-10T11:16:33.959Z,4556.25
2019-06-10T11:17:33.980Z,4342.50
2019-06-10T11:18:34.163Z,4590.00
2019-06-10T11:19:33.928Z,1305.00
2019-06-10T11:20:33.918Z,4128.75
2019-06-10T11:21:33.911Z,1951.88
2019-06-10T11:22:33.898Z,950.62
2019-06-10T11:23:34.702Z,950.62
2019-06-10T11:24:40.909Z,2295.00
2019-06-10T11:25:34.868Z,3470.62
2019-06-10T11:26:33.857Z,4331.25
2019-06-10T11:27:33.846Z,3138.75
2019-06-10T11:28:33.857Z,4016.25
2019-06-10T11:29:33.827Z,2413.12
2019-06-10T11:30:33.816Z,4708.12
2019-06-10T11:31:33.806Z,4336.88
2019-06-10T11:32:33.797Z,4134.38
2019-06-10T11:33:34.056Z,4140.00
2019-06-10T11:34:33.809Z,3841.88
2019-06-10T11:35:33.770Z,3616.88
2019-06-10T11:36:33.760Z,3538.12
2019-06-10T11:37:33.749Z,3549.38
2019-06-10T11:38:33.764Z,3448.12
2019-06-10T11:39:37.848Z,3105.00
2019-06-10T11:40:34.082Z,3228.75
2019-06-10T11:41:33.710Z,3133.12
2019-06-10T11:42:33.698Z,2210.62
2019-06-10T11:43:33.732Z,2013.75
2019-06-10T11:44:34.003Z,1293.75
2019-06-10T11:45:33.666Z,1276.88
2019-06-10T11:46:33.665Z,3116.25
2019-06-10T11:47:33.643Z,3234.38
2019-06-10T11:48:33.651Z,2424.38
2019-06-10T11:49:33.622Z,2745.00
2019-06-10T11:50:33.614Z,2739.38
2019-06-10T11:51:33.601Z,1951.88
2019-06-10T11:52:33.695Z,1828.12
2019-06-10T11:53:34.433Z,1434.38
2019-06-10T11:54:47.879Z,1878.75
2019-06-10T11:55:34.558Z,1507.50
2019-06-10T11:56:33.773Z,1068.75
2019-06-10T11:57:33.543Z,961.88
2019-06-10T11:58:33.549Z,916.88
2019-06-10T11:59:33.557Z,911.25
2019-06-10T12:00:33.510Z,939.38
2019-06-10T12:01:33.521Z,1513.12
2019-06-10T12:02:33.485Z,1316.25
2019-06-10T12:03:33.494Z,1282.50
2019-06-10T12:04:33.465Z,1018.12
2019-06-10T12:05:33.453Z,1035.00
2019-06-10T12:06:34.144Z,1096.88
2019-06-10T12:07:33.433Z,2227.50
2019-06-10T12:08:33.439Z,1293.75
2019-06-10T12:09:33.557Z,1276.88
2019-06-10T12:10:34.074Z,2030.62
2019-06-10T12:11:34.361Z,2255.62
2019-06-10T12:12:33.793Z,2559.38
2019-06-10T12:13:34.655Z,2486.25
2019-06-10T12:14:33.960Z,1620.00
2019-06-10T12:16:12.717Z,2356.88
2019-06-10T12:17:45.617Z,2581.88
2019-06-10T12:18:34.331Z,2407.50
2019-06-10T12:19:34.086Z,2340.00
2019-06-10T12:20:33.537Z,2362.50
2019-06-10T12:21:33.918Z,2480.62
2019-06-10T12:22:33.734Z,2739.38
2019-06-10T12:23:33.826Z,2356.88
2019-06-10T12:24:34.123Z,2092.50
2019-06-10T12:25:39.386Z,1996.88
2019-06-10T12:26:34.220Z,1940.62
2019-06-10T12:27:33.219Z,2047.50
2019-06-10T12:28:33.199Z,1946.25
2019-06-10T12:29:33.209Z,1873.12
2019-06-10T12:30:34.439Z,1873.12
2019-06-10T12:31:34.537Z,1665.00
2019-06-10T12:32:33.722Z,1670.62
2019-06-10T12:33:33.791Z,1777.50
2019-06-10T12:34:33.498Z,1946.25
2019-06-10T12:35:33.439Z,1878.75
2019-06-10T12:36:33.114Z,1771.88
2019-06-10T12:37:33.837Z,1839.38